<?xml version='1.0' encoding='UTF-8'?><gpx version="1.1" creator="JPX - https://github.com/jenetics/jpx" xmlns="http://www.topografix.com/GPX/1/1"><trk><trkseg><trkpt lat="45.6180573" lon="10.8052935"><ele>451.0</ele><time>2026-03-28T12:39:47.413Z</time></trkpt><trkpt lat="45.61799" lon="10.80531"><ele>451.0</ele><time>2026-03-28T12:40:09.413Z</time></trkpt><trkpt lat="45.61795" lon="10.8052233"><ele>451.0</ele><time>2026-03-28T12:40:35.413Z</time></trkpt><trkpt lat="45.6179417" lon="10.805105"><ele>451.0</ele><time>2026-03-28T12:40:51.413Z</time></trkpt><trkpt lat="45.61796" lon="10.80501"><ele>451.0</ele><time>2026-03-28T12:40:55.413Z</time></trkpt><trkpt lat="45.6178967" lon="10.8049867"><ele>451.0</ele><time>2026-03-28T12:41:01.413Z</time></trkpt><trkpt lat="45.6178367" lon="10.8049267"><ele>451.0</ele><time>2026-03-28T12:41:07.413Z</time></trkpt><trkpt lat="45.617775" lon="10.8048333"><ele>448.0</ele><time>2026-03-28T12:41:09.413Z</time></trkpt><trkpt lat="45.617705" lon="10.80473"><ele>445.0</ele><time>2026-03-28T12:41:11.413Z</time></trkpt><trkpt lat="45.6176233" lon="10.8046433"><ele>442.0</ele><time>2026-03-28T12:41:13.413Z</time></trkpt><trkpt lat="45.617525" lon="10.80455"><ele>439.0</ele><time>2026-03-28T12:41:15.413Z</time></trkpt><trkpt lat="45.61744" lon="10.8044383"><ele>436.0</ele><time>2026-03-28T12:41:17.413Z</time></trkpt><trkpt lat="45.6173883" lon="10.80438"><ele>437.2857142857143</ele><time>2026-03-28T12:41:18.413Z</time></trkpt><trkpt lat="45.617325" lon="10.8043283"><ele>438.57142857142856</ele><time>2026-03-28T12:41:19.414Z</time></trkpt><trkpt lat="45.6172417" lon="10.8042583"><ele>439.8571428571429</ele><time>2026-03-28T12:41:20.413Z</time></trkpt><trkpt lat="45.61718" lon="10.804205"><ele>441.1428571428571</ele><time>2026-03-28T12:41:21.413Z</time></trkpt><trkpt lat="45.6171133" lon="10.80416"><ele>442.4285714285714</ele><time>2026-03-28T12:41:22.413Z</time></trkpt><trkpt lat="45.6170617" lon="10.8041033"><ele>443.7142857142857</ele><time>2026-03-28T12:41:23.413Z</time></trkpt><trkpt lat="45.6170117" lon="10.8040467"><ele>445.0</ele><time>2026-03-28T12:41:24.413Z</time></trkpt><trkpt lat="45.6169567" lon="10.8039817"><ele>445.0</ele><time>2026-03-28T12:41:25.413Z</time></trkpt><trkpt lat="45.6168983" lon="10.8039183"><ele>445.0</ele><time>2026-03-28T12:41:26.413Z</time></trkpt><trkpt lat="45.6168483" lon="10.80386"><ele>445.0</ele><time>2026-03-28T12:41:27.413Z</time></trkpt><trkpt lat="45.6167817" lon="10.8038067"><ele>445.0</ele><time>2026-03-28T12:41:28.413Z</time></trkpt><trkpt lat="45.6167117" lon="10.803755"><ele>445.0</ele><time>2026-03-28T12:41:29.414Z</time></trkpt><trkpt lat="45.6166367" lon="10.8037183"><ele>445.0</ele><time>2026-03-28T12:41:30.414Z</time></trkpt><trkpt lat="45.61657" lon="10.8036783"><ele>445.0</ele><time>2026-03-28T12:41:31.413Z</time></trkpt><trkpt lat="45.616505" lon="10.8036267"><ele>445.00000000000006</ele><time>2026-03-28T12:41:32.413Z</time></trkpt><trkpt lat="45.6164517" lon="10.8035667"><ele>445.0</ele><time>2026-03-28T12:41:33.413Z</time></trkpt><trkpt lat="45.6164017" lon="10.8035017"><ele>445.0</ele><time>2026-03-28T12:41:34.413Z</time></trkpt><trkpt lat="45.6163567" lon="10.8034333"><ele>445.0</ele><time>2026-03-28T12:41:35.413Z</time></trkpt><trkpt lat="45.61625" lon="10.8033167"><ele>445.00000000000006</ele><time>2026-03-28T12:41:37.413Z</time></trkpt><trkpt lat="45.6161867" lon="10.80325"><ele>445.0</ele><time>2026-03-28T12:41:38.413Z</time></trkpt><trkpt lat="45.616125" lon="10.803185"><ele>445.33333333333337</ele><time>2026-03-28T12:41:39.414Z</time></trkpt><trkpt lat="45.6160667" lon="10.8031233"><ele>445.6666666666667</ele><time>2026-03-28T12:41:40.413Z</time></trkpt><trkpt lat="45.61596" lon="10.8030217"><ele>446.0</ele><time>2026-03-28T12:41:42.413Z</time></trkpt><trkpt lat="45.6159033" lon="10.80296"><ele>446.33333333333337</ele><time>2026-03-28T12:41:43.414Z</time></trkpt><trkpt lat="45.6158433" lon="10.8028817"><ele>446.6666666666667</ele><time>2026-03-28T12:41:44.413Z</time></trkpt><trkpt lat="45.615795" lon="10.8027883"><ele>447.0</ele><time>2026-03-28T12:41:45.414Z</time></trkpt><trkpt lat="45.6157567" lon="10.8027"><ele>445.6</ele><time>2026-03-28T12:41:46.414Z</time></trkpt><trkpt lat="45.6157267" lon="10.8026"><ele>444.20000000000005</ele><time>2026-03-28T12:41:47.413Z</time></trkpt><trkpt lat="45.6156967" lon="10.8025"><ele>442.8</ele><time>2026-03-28T12:41:48.413Z</time></trkpt><trkpt lat="45.61566" lon="10.8023717"><ele>441.4</ele><time>2026-03-28T12:41:49.414Z</time></trkpt><trkpt lat="45.61562" lon="10.802235"><ele>440.0</ele><time>2026-03-28T12:41:50.413Z</time></trkpt><trkpt lat="45.6155783" lon="10.8021033"><ele>439.99999999999994</ele><time>2026-03-28T12:41:51.413Z</time></trkpt><trkpt lat="45.61554" lon="10.80198"><ele>440.0</ele><time>2026-03-28T12:41:52.413Z</time></trkpt><trkpt lat="45.615505" lon="10.80188"><ele>440.0</ele><time>2026-03-28T12:41:53.413Z</time></trkpt><trkpt lat="45.6154667" lon="10.8017883"><ele>440.0</ele><time>2026-03-28T12:41:54.413Z</time></trkpt><trkpt lat="45.615425" lon="10.80172"><ele>439.99999999999994</ele><time>2026-03-28T12:41:55.413Z</time></trkpt><trkpt lat="45.6153683" lon="10.8016367"><ele>440.0</ele><time>2026-03-28T12:41:56.413Z</time></trkpt><trkpt lat="45.6153167" lon="10.8015533"><ele>438.3333333333333</ele><time>2026-03-28T12:41:57.413Z</time></trkpt><trkpt lat="45.61528" lon="10.801475"><ele>436.66666666666663</ele><time>2026-03-28T12:41:58.413Z</time></trkpt><trkpt lat="45.615245" lon="10.8013183"><ele>435.0</ele><time>2026-03-28T12:42:00.413Z</time></trkpt><trkpt lat="45.6152383" lon="10.8012183"><ele>433.33333333333337</ele><time>2026-03-28T12:42:01.414Z</time></trkpt><trkpt lat="45.61524" lon="10.80111"><ele>431.6666666666667</ele><time>2026-03-28T12:42:02.413Z</time></trkpt><trkpt lat="45.6152383" lon="10.8010033"><ele>430.0</ele><time>2026-03-28T12:42:03.413Z</time></trkpt><trkpt lat="45.6152317" lon="10.8009"><ele>428.6666666666667</ele><time>2026-03-28T12:42:04.413Z</time></trkpt><trkpt lat="45.615225" lon="10.80081"><ele>427.33333333333337</ele><time>2026-03-28T12:42:05.414Z</time></trkpt><trkpt lat="45.6152033" lon="10.8007183"><ele>426.0</ele><time>2026-03-28T12:42:06.413Z</time></trkpt><trkpt lat="45.6151883" lon="10.8006233"><ele>424.66666666666663</ele><time>2026-03-28T12:42:07.413Z</time></trkpt><trkpt lat="45.61518" lon="10.8004467"><ele>423.3333333333333</ele><time>2026-03-28T12:42:09.413Z</time></trkpt><trkpt lat="45.6151933" lon="10.8003067"><ele>422.0</ele><time>2026-03-28T12:42:11.413Z</time></trkpt><trkpt lat="45.6152267" lon="10.8001767"><ele>420.0</ele><time>2026-03-28T12:42:13.413Z</time></trkpt><trkpt lat="45.61529" lon="10.8000333"><ele>418.0</ele><time>2026-03-28T12:42:15.413Z</time></trkpt><trkpt lat="45.615335" lon="10.79995"><ele>416.0</ele><time>2026-03-28T12:42:16.413Z</time></trkpt><trkpt lat="45.615365" lon="10.7998583"><ele>414.0</ele><time>2026-03-28T12:42:17.413Z</time></trkpt><trkpt lat="45.615405" lon="10.7997133"><ele>412.0</ele><time>2026-03-28T12:42:19.413Z</time></trkpt><trkpt lat="45.6154033" lon="10.7995133"><ele>410.8</ele><time>2026-03-28T12:42:21.413Z</time></trkpt><trkpt lat="45.615375" lon="10.7993717"><ele>409.6</ele><time>2026-03-28T12:42:22.413Z</time></trkpt><trkpt lat="45.6153433" lon="10.799225"><ele>408.40000000000003</ele><time>2026-03-28T12:42:23.414Z</time></trkpt><trkpt lat="45.6153133" lon="10.79908"><ele>407.20000000000005</ele><time>2026-03-28T12:42:24.413Z</time></trkpt><trkpt lat="45.61528" lon="10.79894"><ele>406.0</ele><time>2026-03-28T12:42:25.413Z</time></trkpt><trkpt lat="45.6152417" lon="10.798795"><ele>406.0</ele><time>2026-03-28T12:42:26.413Z</time></trkpt><trkpt lat="45.6151983" lon="10.7986617"><ele>406.0</ele><time>2026-03-28T12:42:27.413Z</time></trkpt><trkpt lat="45.6151567" lon="10.7985233"><ele>406.0</ele><time>2026-03-28T12:42:28.414Z</time></trkpt><trkpt lat="45.61512" lon="10.7983817"><ele>406.0</ele><time>2026-03-28T12:42:29.413Z</time></trkpt><trkpt lat="45.6150783" lon="10.7982417"><ele>406.0</ele><time>2026-03-28T12:42:30.413Z</time></trkpt><trkpt lat="45.6150367" lon="10.7981083"><ele>406.33333333333337</ele><time>2026-03-28T12:42:31.413Z</time></trkpt><trkpt lat="45.6150033" lon="10.797985"><ele>406.6666666666667</ele><time>2026-03-28T12:42:32.413Z</time></trkpt><trkpt lat="45.6149767" lon="10.7978733"><ele>407.0</ele><time>2026-03-28T12:42:33.414Z</time></trkpt><trkpt lat="45.6149467" lon="10.7977583"><ele>407.33333333333337</ele><time>2026-03-28T12:42:34.413Z</time></trkpt><trkpt lat="45.6149233" lon="10.79764"><ele>407.6666666666667</ele><time>2026-03-28T12:42:35.414Z</time></trkpt><trkpt lat="45.6149033" lon="10.7975133"><ele>408.0</ele><time>2026-03-28T12:42:36.413Z</time></trkpt><trkpt lat="45.6148783" lon="10.7974"><ele>408.0</ele><time>2026-03-28T12:42:37.412Z</time></trkpt><trkpt lat="45.6148567" lon="10.7973017"><ele>408.0</ele><time>2026-03-28T12:42:38.412Z</time></trkpt><trkpt lat="45.6148417" lon="10.7972133"><ele>408.0</ele><time>2026-03-28T12:42:39.412Z</time></trkpt><trkpt lat="45.6148317" lon="10.7971217"><ele>408.0</ele><time>2026-03-28T12:42:40.412Z</time></trkpt><trkpt lat="45.6148267" lon="10.796965"><ele>408.0</ele><time>2026-03-28T12:42:42.412Z</time></trkpt><trkpt lat="45.6148233" lon="10.796805"><ele>408.0</ele><time>2026-03-28T12:42:44.412Z</time></trkpt><trkpt lat="45.6148233" lon="10.7967133"><ele>407.59999999999997</ele><time>2026-03-28T12:42:45.412Z</time></trkpt><trkpt lat="45.614815" lon="10.7966117"><ele>407.2</ele><time>2026-03-28T12:42:46.412Z</time></trkpt><trkpt lat="45.614795" lon="10.796515"><ele>406.8</ele><time>2026-03-28T12:42:47.412Z</time></trkpt><trkpt lat="45.6147517" lon="10.79637"><ele>406.4</ele><time>2026-03-28T12:42:49.412Z</time></trkpt><trkpt lat="45.6147017" lon="10.7962417"><ele>406.0</ele><time>2026-03-28T12:42:51.413Z</time></trkpt><trkpt lat="45.61462" lon="10.7961517"><ele>406.00000000000006</ele><time>2026-03-28T12:42:53.412Z</time></trkpt><trkpt lat="45.6145533" lon="10.79613"><ele>406.0</ele><time>2026-03-28T12:42:54.412Z</time></trkpt><trkpt lat="45.6144717" lon="10.7961083"><ele>406.0</ele><time>2026-03-28T12:42:55.412Z</time></trkpt><trkpt lat="45.614395" lon="10.79609"><ele>406.0</ele><time>2026-03-28T12:42:56.412Z</time></trkpt><trkpt lat="45.6143283" lon="10.796085"><ele>406.00000000000006</ele><time>2026-03-28T12:42:57.412Z</time></trkpt><trkpt lat="45.6142083" lon="10.7960733"><ele>406.0</ele><time>2026-03-28T12:42:59.412Z</time></trkpt><trkpt lat="45.6141383" lon="10.79605"><ele>402.85714285714283</ele><time>2026-03-28T12:43:00.412Z</time></trkpt><trkpt lat="45.6140683" lon="10.79602"><ele>399.7142857142857</ele><time>2026-03-28T12:43:01.412Z</time></trkpt><trkpt lat="45.6140067" lon="10.7959783"><ele>396.57142857142856</ele><time>2026-03-28T12:43:02.412Z</time></trkpt><trkpt lat="45.6139233" lon="10.79593"><ele>393.42857142857144</ele><time>2026-03-28T12:43:04.412Z</time></trkpt><trkpt lat="45.6138633" lon="10.7958917"><ele>390.2857142857143</ele><time>2026-03-28T12:43:06.412Z</time></trkpt><trkpt lat="45.6138233" lon="10.79579"><ele>387.1428571428571</ele><time>2026-03-28T12:43:08.413Z</time></trkpt><trkpt lat="45.6138" lon="10.7957017"><ele>384.0</ele><time>2026-03-28T12:43:09.412Z</time></trkpt><trkpt lat="45.613785" lon="10.7955967"><ele>384.0</ele><time>2026-03-28T12:43:10.412Z</time></trkpt><trkpt lat="45.6137583" lon="10.7954617"><ele>384.0</ele><time>2026-03-28T12:43:11.412Z</time></trkpt><trkpt lat="45.61374" lon="10.7953317"><ele>384.0</ele><time>2026-03-28T12:43:12.412Z</time></trkpt><trkpt lat="45.6137217" lon="10.79521"><ele>384.0</ele><time>2026-03-28T12:43:13.412Z</time></trkpt><trkpt lat="45.6136917" lon="10.795095"><ele>384.0</ele><time>2026-03-28T12:43:14.412Z</time></trkpt><trkpt lat="45.6136467" lon="10.79498"><ele>383.5</ele><time>2026-03-28T12:43:15.412Z</time></trkpt><trkpt lat="45.6136067" lon="10.794875"><ele>383.0</ele><time>2026-03-28T12:43:16.412Z</time></trkpt><trkpt lat="45.6135767" lon="10.794765"><ele>382.5</ele><time>2026-03-28T12:43:17.412Z</time></trkpt><trkpt lat="45.6135533" lon="10.7946533"><ele>382.0</ele><time>2026-03-28T12:43:18.413Z</time></trkpt><trkpt lat="45.6135317" lon="10.7945483"><ele>381.5</ele><time>2026-03-28T12:43:19.413Z</time></trkpt><trkpt lat="45.613515" lon="10.794435"><ele>381.0</ele><time>2026-03-28T12:43:20.412Z</time></trkpt><trkpt lat="45.6134967" lon="10.7943117"><ele>381.0</ele><time>2026-03-28T12:43:21.412Z</time></trkpt><trkpt lat="45.6134767" lon="10.7941867"><ele>381.0</ele><time>2026-03-28T12:43:22.412Z</time></trkpt><trkpt lat="45.6134483" lon="10.7940383"><ele>381.0</ele><time>2026-03-28T12:43:23.412Z</time></trkpt><trkpt lat="45.61341" lon="10.79391"><ele>381.0</ele><time>2026-03-28T12:43:24.412Z</time></trkpt><trkpt lat="45.6133683" lon="10.7937983"><ele>381.0</ele><time>2026-03-28T12:43:25.412Z</time></trkpt><trkpt lat="45.613325" lon="10.7937017"><ele>381.0</ele><time>2026-03-28T12:43:26.412Z</time></trkpt><trkpt lat="45.613275" lon="10.7936133"><ele>381.0</ele><time>2026-03-28T12:43:27.412Z</time></trkpt><trkpt lat="45.6132183" lon="10.79354"><ele>381.0</ele><time>2026-03-28T12:43:28.412Z</time></trkpt><trkpt lat="45.613155" lon="10.7934583"><ele>381.0</ele><time>2026-03-28T12:43:29.412Z</time></trkpt><trkpt lat="45.613085" lon="10.7933867"><ele>381.0</ele><time>2026-03-28T12:43:30.412Z</time></trkpt><trkpt lat="45.613005" lon="10.7933133"><ele>381.0</ele><time>2026-03-28T12:43:31.412Z</time></trkpt><trkpt lat="45.6129183" lon="10.7932417"><ele>383.0</ele><time>2026-03-28T12:43:32.412Z</time></trkpt><trkpt lat="45.6128433" lon="10.7931583"><ele>385.0</ele><time>2026-03-28T12:43:33.413Z</time></trkpt><trkpt lat="45.6127667" lon="10.793075"><ele>387.0</ele><time>2026-03-28T12:43:34.413Z</time></trkpt><trkpt lat="45.6127033" lon="10.7929867"><ele>389.0</ele><time>2026-03-28T12:43:35.412Z</time></trkpt><trkpt lat="45.6126483" lon="10.7928867"><ele>391.0</ele><time>2026-03-28T12:43:36.412Z</time></trkpt><trkpt lat="45.6126067" lon="10.7927967"><ele>393.0</ele><time>2026-03-28T12:43:37.412Z</time></trkpt><trkpt lat="45.6125733" lon="10.7926967"><ele>368.0</ele><time>2026-03-28T12:43:38.412Z</time></trkpt><trkpt lat="45.612555" lon="10.7925967"><ele>376.0</ele><time>2026-03-28T12:43:39.412Z</time></trkpt><trkpt lat="45.612555" lon="10.7925967"><ele>376.0</ele><time>2026-03-28T12:43:39.412Z</time></trkpt><trkpt lat="45.612555" lon="10.7925967"><ele>376.0</ele><time>2026-03-28T12:43:39.412Z</time></trkpt><trkpt lat="45.612555" lon="10.7925967"><ele>376.0</ele><time>2026-03-28T12:43:39.412Z</time></trkpt><trkpt lat="45.612555" lon="10.7925967"><ele>376.0</ele><time>2026-03-28T12:43:39.412Z</time></trkpt><trkpt lat="45.612555" lon="10.7925967"><ele>376.0</ele><time>2026-03-28T12:43:39.412Z</time></trkpt><trkpt lat="45.612555" lon="10.7925967"><ele>376.0</ele><time>2026-03-28T12:43:39.412Z</time></trkpt><trkpt lat="45.612555" lon="10.7925967"><ele>376.0</ele><time>2026-03-28T12:43:39.412Z</time></trkpt><trkpt lat="45.612555" lon="10.7925967"><ele>376.0</ele><time>2026-03-28T12:43:39.412Z</time></trkpt><trkpt lat="45.612555" lon="10.7925967"><ele>376.0</ele><time>2026-03-28T12:43:39.412Z</time></trkpt><trkpt lat="45.612555" lon="10.7925967"><ele>376.0</ele><time>2026-03-28T12:43:39.412Z</time></trkpt><trkpt lat="45.612555" lon="10.7925967"><ele>376.0</ele><time>2026-03-28T12:43:39.412Z</time></trkpt><trkpt lat="45.612555" lon="10.7925967"><ele>376.0</ele><time>2026-03-28T12:43:39.412Z</time></trkpt><trkpt lat="45.612555" lon="10.7925967"><ele>376.0</ele><time>2026-03-28T12:43:39.412Z</time></trkpt><trkpt lat="45.612555" lon="10.7925967"><ele>376.0</ele><time>2026-03-28T12:43:39.412Z</time></trkpt><trkpt lat="45.612555" lon="10.7925967"><ele>376.0</ele><time>2026-03-28T12:43:39.412Z</time></trkpt><trkpt lat="45.612555" lon="10.7925967"><ele>376.0</ele><time>2026-03-28T12:43:39.412Z</time></trkpt><trkpt lat="45.612555" lon="10.7925967"><ele>376.0</ele><time>2026-03-28T12:43:39.412Z</time></trkpt><trkpt lat="45.612555" lon="10.7925967"><ele>376.0</ele><time>2026-03-28T12:43:39.412Z</time></trkpt><trkpt lat="45.612555" lon="10.7925967"><ele>376.0</ele><time>2026-03-28T12:43:39.412Z</time></trkpt><trkpt lat="45.612555" lon="10.7925967"><ele>376.0</ele><time>2026-03-28T12:43:39.412Z</time></trkpt></trkseg></trk></gpx>